sensor_id;sensor_type;location;lat;lon;timestamp;temperature;humidity
74540;SHT31;66042;51.090;-115.340;2023-03-20T00:01:21;26.17;12.24
74540;SHT31;66042;51.090;-115.340;2023-03-20T00:03:54;25.84;12.21
74540;SHT31;66042;51.090;-115.340;2023-03-20T00:06:23;25.41;12.30
74540;SHT31;66042;51.090;-115.340;2023-03-20T00:08:53;24.70;12.49
74540;SHT31;66042;51.090;-115.340;2023-03-20T00:14:02;22.36;13.62
74540;SHT31;66042;51.090;-115.340;2023-03-20T00:16:36;21.60;14.00
74540;SHT31;66042;51.090;-115.340;2023-03-20T00:19:19;20.96;14.13
74540;SHT31;66042;51.090;-115.340;2023-03-20T00:21:49;20.18;14.65
74540;SHT31;66042;51.090;-115.340;2023-03-20T00:24:19;19.58;15.10
74540;SHT31;66042;51.090;-115.340;2023-03-20T00:26:47;19.06;15.19
74540;SHT31;66042;51.090;-115.340;2023-03-20T00:29:21;18.42;14.72
74540;SHT31;66042;51.090;-115.340;2023-03-20T00:31:55;17.89;15.71
74540;SHT31;66042;51.090;-115.340;2023-03-20T00:34:25;17.59;15.99
74540;SHT31;66042;51.090;-115.340;2023-03-20T00:36:54;17.38;16.63
74540;SHT31;66042;51.090;-115.340;2023-03-20T00:39:22;17.31;16.65
74540;SHT31;66042;51.090;-115.340;2023-03-20T00:44:35;16.29;17.24
74540;SHT31;66042;51.090;-115.340;2023-03-20T00:47:12;15.65;17.97
74540;SHT31;66042;51.090;-115.340;2023-03-20T00:49:48;15.00;18.33
74540;SHT31;66042;51.090;-115.340;2023-03-20T00:52:19;14.49;19.00
74540;SHT31;66042;51.090;-115.340;2023-03-20T00:54:47;14.06;19.17
74540;SHT31;66042;51.090;-115.340;2023-03-20T00:57:19;13.59;19.71
74540;SHT31;66042;51.090;-115.340;2023-03-20T01:02:31;12.63;20.98
74540;SHT31;66042;51.090;-115.340;2023-03-20T01:04:59;12.28;21.46
74540;SHT31;66042;51.090;-115.340;2023-03-20T01:07:28;12.03;21.80
74540;SHT31;66042;51.090;-115.340;2023-03-20T01:09:55;11.74;22.04
74540;SHT31;66042;51.090;-115.340;2023-03-20T01:12:21;11.41;22.41
74540;SHT31;66042;51.090;-115.340;2023-03-20T01:14:50;11.16;22.70
74540;SHT31;66042;51.090;-115.340;2023-03-20T01:17:21;10.91;23.11
74540;SHT31;66042;51.090;-115.340;2023-03-20T01:19:50;10.57;23.28
74540;SHT31;66042;51.090;-115.340;2023-03-20T01:22:18;10.28;23.86
74540;SHT31;66042;51.090;-115.340;2023-03-20T01:24:45;10.09;24.11
74540;SHT31;66042;51.090;-115.340;2023-03-20T01:27:17;9.87;24.19
74540;SHT31;66042;51.090;-115.340;2023-03-20T01:29:45;9.64;24.28
74540;SHT31;66042;51.090;-115.340;2023-03-20T01:32:13;9.40;24.73
74540;SHT31;66042;51.090;-115.340;2023-03-20T01:34:43;9.20;25.17
74540;SHT31;66042;51.090;-115.340;2023-03-20T01:37:13;8.99;25.04
74540;SHT31;66042;51.090;-115.340;2023-03-20T01:39:48;8.79;25.50
74540;SHT31;66042;51.090;-115.340;2023-03-20T01:42:15;8.57;26.09
74540;SHT31;66042;51.090;-115.340;2023-03-20T01:44:42;8.33;26.42
74540;SHT31;66042;51.090;-115.340;2023-03-20T01:47:14;8.14;26.62
74540;SHT31;66042;51.090;-115.340;2023-03-20T01:53:08;7.78;26.98
74540;SHT31;66042;51.090;-115.340;2023-03-20T01:55:50;7.63;27.19
74540;SHT31;66042;51.090;-115.340;2023-03-20T01:58:25;7.49;27.53
74540;SHT31;66042;51.090;-115.340;2023-03-20T02:01:03;7.35;27.59
74540;SHT31;66042;51.090;-115.340;2023-03-20T02:03:35;7.18;27.78
74540;SHT31;66042;51.090;-115.340;2023-03-20T02:06:02;6.99;28.22
74540;SHT31;66042;51.090;-115.340;2023-03-20T02:08:31;6.82;28.49
74540;SHT31;66042;51.090;-115.340;2023-03-20T02:11:09;6.71;28.99
74540;SHT31;66042;51.090;-115.340;2023-03-20T02:13:37;6.60;28.97
74540;SHT31;66042;51.090;-115.340;2023-03-20T02:16:16;6.45;29.35
74540;SHT31;66042;51.090;-115.340;2023-03-20T02:18:45;6.32;29.48
74540;SHT31;66042;51.090;-115.340;2023-03-20T02:33:01;5.58;31.18
74540;SHT31;66042;51.090;-115.340;2023-03-20T02:39:26;5.35;31.32
74540;SHT31;66042;51.090;-115.340;2023-03-20T02:44:36;5.14;32.13
74540;SHT31;66042;51.090;-115.340;2023-03-20T02:47:36;4.99;32.82
74540;SHT31;66042;51.090;-115.340;2023-03-20T02:50:26;4.92;33.17
74540;SHT31;66042;51.090;-115.340;2023-03-20T02:56:16;4.73;33.71
74540;SHT31;66042;51.090;-115.340;2023-03-20T02:59:25;4.64;33.96
74540;SHT31;66042;51.090;-115.340;2023-03-20T03:02:15;4.46;34.02
74540;SHT31;66042;51.090;-115.340;2023-03-20T03:05:01;4.26;34.54
74540;SHT31;66042;51.090;-115.340;2023-03-20T03:07:54;4.19;34.56
74540;SHT31;66042;51.090;-115.340;2023-03-20T03:10:31;4.13;34.77
74540;SHT31;66042;51.090;-115.340;2023-03-20T03:13:11;4.02;35.27
74540;SHT31;66042;51.090;-115.340;2023-03-20T03:15:46;3.91;35.72
74540;SHT31;66042;51.090;-115.340;2023-03-20T03:18:19;3.85;36.11
74540;SHT31;66042;51.090;-115.340;2023-03-20T03:20:51;3.69;36.51
74540;SHT31;66042;51.090;-115.340;2023-03-20T03:23:29;3.62;36.69
74540;SHT31;66042;51.090;-115.340;2023-03-20T03:26:10;3.58;36.63
74540;SHT31;66042;51.090;-115.340;2023-03-20T03:28:50;3.52;36.54
74540;SHT31;66042;51.090;-115.340;2023-03-20T03:31:24;3.40;36.94
74540;SHT31;66042;51.090;-115.340;2023-03-20T03:33:52;3.29;37.23
74540;SHT31;66042;51.090;-115.340;2023-03-20T03:41:48;3.08;37.71
74540;SHT31;66042;51.090;-115.340;2023-03-20T03:44:25;3.01;37.79
74540;SHT31;66042;51.090;-115.340;2023-03-20T03:47:35;2.93;38.12
74540;SHT31;66042;51.090;-115.340;2023-03-20T03:50:42;2.79;38.53
74540;SHT31;66042;51.090;-115.340;2023-03-20T03:53:16;2.70;38.55
74540;SHT31;66042;51.090;-115.340;2023-03-20T03:55:52;2.64;38.81
74540;SHT31;66042;51.090;-115.340;2023-03-20T04:01:05;2.45;39.32
74540;SHT31;66042;51.090;-115.340;2023-03-20T04:03:39;2.39;39.41
74540;SHT31;66042;51.090;-115.340;2023-03-20T04:06:11;2.31;39.60
74540;SHT31;66042;51.090;-115.340;2023-03-20T04:08:41;2.27;39.70
74540;SHT31;66042;51.090;-115.340;2023-03-20T04:11:16;2.22;39.86
74540;SHT31;66042;51.090;-115.340;2023-03-20T04:13:46;2.15;39.86
74540;SHT31;66042;51.090;-115.340;2023-03-20T04:16:16;2.04;40.15
74540;SHT31;66042;51.090;-115.340;2023-03-20T04:18:46;1.95;40.19
74540;SHT31;66042;51.090;-115.340;2023-03-20T04:21:14;1.92;40.60
74540;SHT31;66042;51.090;-115.340;2023-03-20T04:23:42;1.82;40.87
74540;SHT31;66042;51.090;-115.340;2023-03-20T04:26:10;1.77;41.30
74540;SHT31;66042;51.090;-115.340;2023-03-20T04:28:36;1.68;41.50
74540;SHT31;66042;51.090;-115.340;2023-03-20T04:31:03;1.60;41.68
74540;SHT31;66042;51.090;-115.340;2023-03-20T04:33:31;1.57;41.69
74540;SHT31;66042;51.090;-115.340;2023-03-20T04:35:57;1.55;41.56
74540;SHT31;66042;51.090;-115.340;2023-03-20T04:38:24;1.47;41.61
74540;SHT31;66042;51.090;-115.340;2023-03-20T04:40:52;1.45;41.59
74540;SHT31;66042;51.090;-115.340;2023-03-20T04:43:19;1.45;41.68
74540;SHT31;66042;51.090;-115.340;2023-03-20T04:45:46;1.45;41.88
74540;SHT31;66042;51.090;-115.340;2023-03-20T04:48:13;1.43;41.60
74540;SHT31;66042;51.090;-115.340;2023-03-20T04:50:40;1.39;41.67
74540;SHT31;66042;51.090;-115.340;2023-03-20T04:53:10;1.36;41.84
74540;SHT31;66042;51.090;-115.340;2023-03-20T04:55:38;1.33;42.26
74540;SHT31;66042;51.090;-115.340;2023-03-20T04:58:05;1.29;42.50
74540;SHT31;66042;51.090;-115.340;2023-03-20T05:00:32;1.26;42.54
74540;SHT31;66042;51.090;-115.340;2023-03-20T05:02:59;1.23;42.80
74540;SHT31;66042;51.090;-115.340;2023-03-20T05:05:26;1.17;42.94
74540;SHT31;66042;51.090;-115.340;2023-03-20T05:07:54;1.11;43.14
74540;SHT31;66042;51.090;-115.340;2023-03-20T05:10:21;1.04;43.44
74540;SHT31;66042;51.090;-115.340;2023-03-20T05:12:48;0.95;43.67
74540;SHT31;66042;51.090;-115.340;2023-03-20T05:15:15;0.91;43.77
74540;SHT31;66042;51.090;-115.340;2023-03-20T05:17:42;0.87;43.95
74540;SHT31;66042;51.090;-115.340;2023-03-20T05:20:09;0.82;44.12
74540;SHT31;66042;51.090;-115.340;2023-03-20T05:22:36;0.77;44.37
74540;SHT31;66042;51.090;-115.340;2023-03-20T05:25:04;0.71;44.51
74540;SHT31;66042;51.090;-115.340;2023-03-20T05:27:31;0.61;44.75
74540;SHT31;66042;51.090;-115.340;2023-03-20T05:29:58;0.53;44.75
74540;SHT31;66042;51.090;-115.340;2023-03-20T05:32:25;0.51;44.48
74540;SHT31;66042;51.090;-115.340;2023-03-20T05:34:52;0.48;44.33
74540;SHT31;66042;51.090;-115.340;2023-03-20T05:37:19;0.44;44.78
74540;SHT31;66042;51.090;-115.340;2023-03-20T05:39:47;0.40;44.83
74540;SHT31;66042;51.090;-115.340;2023-03-20T05:42:14;0.35;44.76
74540;SHT31;66042;51.090;-115.340;2023-03-20T05:44:40;0.32;45.08
74540;SHT31;66042;51.090;-115.340;2023-03-20T05:47:08;0.27;45.63
74540;SHT31;66042;51.090;-115.340;2023-03-20T05:49:35;0.22;45.44
74540;SHT31;66042;51.090;-115.340;2023-03-20T05:52:03;0.19;45.45
74540;SHT31;66042;51.090;-115.340;2023-03-20T05:54:29;0.15;45.65
74540;SHT31;66042;51.090;-115.340;2023-03-20T05:56:56;0.09;46.01
74540;SHT31;66042;51.090;-115.340;2023-03-20T05:59:23;0.05;46.21
74540;SHT31;66042;51.090;-115.340;2023-03-20T06:01:50;0.00;46.40
74540;SHT31;66042;51.090;-115.340;2023-03-20T06:04:17;-0.03;46.44
74540;SHT31;66042;51.090;-115.340;2023-03-20T06:06:44;-0.04;46.43
74540;SHT31;66042;51.090;-115.340;2023-03-20T06:09:11;-0.06;46.52
74540;SHT31;66042;51.090;-115.340;2023-03-20T06:11:38;-0.09;46.63
74540;SHT31;66042;51.090;-115.340;2023-03-20T06:14:05;-0.13;46.54
74540;SHT31;66042;51.090;-115.340;2023-03-20T06:16:32;-0.17;46.46
74540;SHT31;66042;51.090;-115.340;2023-03-20T06:18:59;-0.19;46.78
74540;SHT31;66042;51.090;-115.340;2023-03-20T06:21:26;-0.24;46.99
74540;SHT31;66042;51.090;-115.340;2023-03-20T06:23:53;-0.29;47.16
74540;SHT31;66042;51.090;-115.340;2023-03-20T06:26:20;-0.34;46.89
74540;SHT31;66042;51.090;-115.340;2023-03-20T06:28:47;-0.37;47.00
74540;SHT31;66042;51.090;-115.340;2023-03-20T06:31:14;-0.40;47.41
74540;SHT31;66042;51.090;-115.340;2023-03-20T06:33:41;-0.44;47.76
74540;SHT31;66042;51.090;-115.340;2023-03-20T06:36:09;-0.48;47.86
74540;SHT31;66042;51.090;-115.340;2023-03-20T06:38:37;-0.52;48.02
74540;SHT31;66042;51.090;-115.340;2023-03-20T06:41:04;-0.57;48.36
74540;SHT31;66042;51.090;-115.340;2023-03-20T06:43:31;-0.61;48.54
74540;SHT31;66042;51.090;-115.340;2023-03-20T06:45:58;-0.61;48.63
74540;SHT31;66042;51.090;-115.340;2023-03-20T06:48:25;-0.64;48.83
74540;SHT31;66042;51.090;-115.340;2023-03-20T06:50:52;-0.67;49.15
74540;SHT31;66042;51.090;-115.340;2023-03-20T06:53:19;-0.72;49.16
74540;SHT31;66042;51.090;-115.340;2023-03-20T06:55:47;-0.75;48.80
74540;SHT31;66042;51.090;-115.340;2023-03-20T06:58:16;-0.78;48.88
74540;SHT31;66042;51.090;-115.340;2023-03-20T07:00:44;-0.81;49.09
74540;SHT31;66042;51.090;-115.340;2023-03-20T07:03:11;-0.84;49.20
74540;SHT31;66042;51.090;-115.340;2023-03-20T07:05:38;-0.87;49.13
74540;SHT31;66042;51.090;-115.340;2023-03-20T07:08:05;-0.90;49.21
74540;SHT31;66042;51.090;-115.340;2023-03-20T07:10:34;-0.95;49.49
74540;SHT31;66042;51.090;-115.340;2023-03-20T07:13:02;-0.98;49.46
74540;SHT31;66042;51.090;-115.340;2023-03-20T07:15:29;-1.00;49.50
74540;SHT31;66042;51.090;-115.340;2023-03-20T07:17:57;-1.03;49.63
74540;SHT31;66042;51.090;-115.340;2023-03-20T07:20:23;-1.08;49.82
74540;SHT31;66042;51.090;-115.340;2023-03-20T07:22:51;-1.12;49.80
74540;SHT31;66042;51.090;-115.340;2023-03-20T07:25:18;-1.13;49.64
74540;SHT31;66042;51.090;-115.340;2023-03-20T07:27:45;-1.19;49.64
74540;SHT31;66042;51.090;-115.340;2023-03-20T07:30:15;-1.22;49.90
74540;SHT31;66042;51.090;-115.340;2023-03-20T07:32:43;-1.25;49.96
74540;SHT31;66042;51.090;-115.340;2023-03-20T07:35:11;-1.27;50.02
74540;SHT31;66042;51.090;-115.340;2023-03-20T07:37:38;-1.32;50.09
74540;SHT31;66042;51.090;-115.340;2023-03-20T07:40:05;-1.36;50.35
74540;SHT31;66042;51.090;-115.340;2023-03-20T07:42:33;-1.38;50.37
74540;SHT31;66042;51.090;-115.340;2023-03-20T07:45:00;-1.42;50.35
74540;SHT31;66042;51.090;-115.340;2023-03-20T07:47:28;-1.47;50.17
74540;SHT31;66042;51.090;-115.340;2023-03-20T07:49:55;-1.50;50.46
74540;SHT31;66042;51.090;-115.340;2023-03-20T07:52:22;-1.53;50.95
74540;SHT31;66042;51.090;-115.340;2023-03-20T07:54:50;-1.57;51.07
74540;SHT31;66042;51.090;-115.340;2023-03-20T07:57:17;-1.61;51.05
74540;SHT31;66042;51.090;-115.340;2023-03-20T07:59:44;-1.64;51.08
74540;SHT31;66042;51.090;-115.340;2023-03-20T08:02:14;-1.67;50.89
74540;SHT31;66042;51.090;-115.340;2023-03-20T08:04:43;-1.68;50.95
74540;SHT31;66042;51.090;-115.340;2023-03-20T08:07:10;-1.70;51.07
74540;SHT31;66042;51.090;-115.340;2023-03-20T08:09:37;-1.73;51.15
74540;SHT31;66042;51.090;-115.340;2023-03-20T08:12:04;-1.76;51.20
74540;SHT31;66042;51.090;-115.340;2023-03-20T08:14:31;-1.79;51.20
74540;SHT31;66042;51.090;-115.340;2023-03-20T08:16:59;-1.82;51.48
74540;SHT31;66042;51.090;-115.340;2023-03-20T08:19:26;-1.85;51.75
74540;SHT31;66042;51.090;-115.340;2023-03-20T08:21:53;-1.88;51.88
74540;SHT31;66042;51.090;-115.340;2023-03-20T08:24:20;-1.92;51.92
74540;SHT31;66042;51.090;-115.340;2023-03-20T08:26:47;-1.96;51.64
74540;SHT31;66042;51.090;-115.340;2023-03-20T08:29:14;-1.99;51.51
74540;SHT31;66042;51.090;-115.340;2023-03-20T08:31:43;-2.01;51.61
74540;SHT31;66042;51.090;-115.340;2023-03-20T08:34:11;-2.05;51.85
74540;SHT31;66042;51.090;-115.340;2023-03-20T08:36:37;-2.09;52.08
74540;SHT31;66042;51.090;-115.340;2023-03-20T08:39:05;-2.09;52.12
74540;SHT31;66042;51.090;-115.340;2023-03-20T08:41:35;-2.14;52.00
74540;SHT31;66042;51.090;-115.340;2023-03-20T08:44:10;-2.20;52.10
74540;SHT31;66042;51.090;-115.340;2023-03-20T08:46:38;-2.25;52.47
74540;SHT31;66042;51.090;-115.340;2023-03-20T08:49:08;-2.29;52.42
74540;SHT31;66042;51.090;-115.340;2023-03-20T08:51:35;-2.31;52.60
74540;SHT31;66042;51.090;-115.340;2023-03-20T08:54:02;-2.35;52.53
74540;SHT31;66042;51.090;-115.340;2023-03-20T08:56:29;-2.39;52.68
74540;SHT31;66042;51.090;-115.340;2023-03-20T08:58:56;-2.42;52.79
74540;SHT31;66042;51.090;-115.340;2023-03-20T09:01:23;-2.46;53.07
74540;SHT31;66042;51.090;-115.340;2023-03-20T09:03:50;-2.51;53.12
74540;SHT31;66042;51.090;-115.340;2023-03-20T09:06:17;-2.52;53.11
74540;SHT31;66042;51.090;-115.340;2023-03-20T09:08:44;-2.55;53.22
74540;SHT31;66042;51.090;-115.340;2023-03-20T09:11:11;-2.56;53.25
74540;SHT31;66042;51.090;-115.340;2023-03-20T09:13:41;-2.58;53.16
74540;SHT31;66042;51.090;-115.340;2023-03-20T09:16:08;-2.64;53.31
74540;SHT31;66042;51.090;-115.340;2023-03-20T09:18:35;-2.66;53.52
74540;SHT31;66042;51.090;-115.340;2023-03-20T09:21:02;-2.70;53.52
74540;SHT31;66042;51.090;-115.340;2023-03-20T09:23:29;-2.74;53.61
74540;SHT31;66042;51.090;-115.340;2023-03-20T09:25:57;-2.80;53.60
74540;SHT31;66042;51.090;-115.340;2023-03-20T09:28:23;-2.83;53.58
74540;SHT31;66042;51.090;-115.340;2023-03-20T09:30:55;-2.88;53.76
74540;SHT31;66042;51.090;-115.340;2023-03-20T09:33:24;-2.94;53.92
74540;SHT31;66042;51.090;-115.340;2023-03-20T09:35:51;-2.98;54.15
74540;SHT31;66042;51.090;-115.340;2023-03-20T09:38:18;-2.99;53.94
74540;SHT31;66042;51.090;-115.340;2023-03-20T09:52:15;-3.12;54.66
74540;SHT31;66042;51.090;-115.340;2023-03-20T09:54:50;-3.14;54.38
74540;SHT31;66042;51.090;-115.340;2023-03-20T09:57:42;-3.19;54.27
74540;SHT31;66042;51.090;-115.340;2023-03-20T10:02:52;-3.28;54.45
74540;SHT31;66042;51.090;-115.340;2023-03-20T10:08:33;-3.34;54.76
74540;SHT31;66042;51.090;-115.340;2023-03-20T10:19:46;-3.42;54.81
74540;SHT31;66042;51.090;-115.340;2023-03-20T10:25:44;-3.46;54.83
74540;SHT31;66042;51.090;-115.340;2023-03-20T10:28:10;-3.46;54.65
74540;SHT31;66042;51.090;-115.340;2023-03-20T10:34:03;-3.48;54.87
74540;SHT31;66042;51.090;-115.340;2023-03-20T10:37:44;-3.49;54.91
74540;SHT31;66042;51.090;-115.340;2023-03-20T10:42:40;-3.51;54.77
74540;SHT31;66042;51.090;-115.340;2023-03-20T10:47:43;-3.57;54.33
74540;SHT31;66042;51.090;-115.340;2023-03-20T10:50:27;-3.54;54.33
74540;SHT31;66042;51.090;-115.340;2023-03-20T10:53:23;-3.55;54.25
74540;SHT31;66042;51.090;-115.340;2023-03-20T10:56:07;-3.55;54.10
74540;SHT31;66042;51.090;-115.340;2023-03-20T10:58:42;-3.56;54.10
74540;SHT31;66042;51.090;-115.340;2023-03-20T11:01:13;-3.59;54.19
74540;SHT31;66042;51.090;-115.340;2023-03-20T11:03:40;-3.59;54.24
74540;SHT31;66042;51.090;-115.340;2023-03-20T11:09:11;-3.63;54.41
74540;SHT31;66042;51.090;-115.340;2023-03-20T11:11:51;-3.65;54.46
74540;SHT31;66042;51.090;-115.340;2023-03-20T11:14:24;-3.69;54.51
74540;SHT31;66042;51.090;-115.340;2023-03-20T11:17:02;-3.71;54.49
74540;SHT31;66042;51.090;-115.340;2023-03-20T11:19:35;-3.73;54.54
74540;SHT31;66042;51.090;-115.340;2023-03-20T11:22:07;-3.76;54.55
74540;SHT31;66042;51.090;-115.340;2023-03-20T11:24:50;-3.77;54.60
74540;SHT31;66042;51.090;-115.340;2023-03-20T11:27:30;-3.80;54.64
74540;SHT31;66042;51.090;-115.340;2023-03-20T11:30:03;-3.80;54.81
74540;SHT31;66042;51.090;-115.340;2023-03-20T11:32:49;-3.86;55.10
74540;SHT31;66042;51.090;-115.340;2023-03-20T11:35:26;-3.86;55.08
74540;SHT31;66042;51.090;-115.340;2023-03-20T11:38:08;-3.89;55.05
74540;SHT31;66042;51.090;-115.340;2023-03-20T11:40:42;-3.90;54.80
74540;SHT31;66042;51.090;-115.340;2023-03-20T11:43:22;-3.94;54.68
74540;SHT31;66042;51.090;-115.340;2023-03-20T11:45:56;-3.92;54.72
74540;SHT31;66042;51.090;-115.340;2023-03-20T11:48:39;-3.89;54.54
74540;SHT31;66042;51.090;-115.340;2023-03-20T11:51:17;-3.81;54.27
74540;SHT31;66042;51.090;-115.340;2023-03-20T11:56:19;-3.67;54.17
74540;SHT31;66042;51.090;-115.340;2023-03-20T12:01:41;-3.55;53.76
74540;SHT31;66042;51.090;-115.340;2023-03-20T12:04:16;-3.51;53.43
74540;SHT31;66042;51.090;-115.340;2023-03-20T12:06:59;-3.45;53.36
74540;SHT31;66042;51.090;-115.340;2023-03-20T12:17:58;-3.35;52.98
74540;SHT31;66042;51.090;-115.340;2023-03-20T12:21:11;-3.36;52.60
74540;SHT31;66042;51.090;-115.340;2023-03-20T12:24:26;-3.34;52.64
74540;SHT31;66042;51.090;-115.340;2023-03-20T12:27:28;-3.31;52.52
74540;SHT31;66042;51.090;-115.340;2023-03-20T12:35:42;-3.37;52.24
74540;SHT31;66042;51.090;-115.340;2023-03-20T12:38:26;-3.43;52.32
74540;SHT31;66042;51.090;-115.340;2023-03-20T12:41:43;-3.48;52.36
74540;SHT31;66042;51.090;-115.340;2023-03-20T12:47:02;-3.62;52.56
74540;SHT31;66042;51.090;-115.340;2023-03-20T13:06:35;-4.01;53.50
74540;SHT31;66042;51.090;-115.340;2023-03-20T13:18:24;-4.25;53.80
74540;SHT31;66042;51.090;-115.340;2023-03-20T13:21:07;-4.29;54.14
74540;SHT31;66042;51.090;-115.340;2023-03-20T13:29:45;-4.40;54.42
74540;SHT31;66042;51.090;-115.340;2023-03-20T13:35:32;-4.36;54.80
74540;SHT31;66042;51.090;-115.340;2023-03-20T13:38:01;-4.34;54.61
74540;SHT31;66042;51.090;-115.340;2023-03-20T13:40:54;-4.31;54.47
74540;SHT31;66042;51.090;-115.340;2023-03-20T13:46:13;-4.24;54.04
74540;SHT31;66042;51.090;-115.340;2023-03-20T13:48:47;-4.20;53.76
74540;SHT31;66042;51.090;-115.340;2023-03-20T13:51:31;-4.16;53.84
74540;SHT31;66042;51.090;-115.340;2023-03-20T13:58:06;-4.11;53.53
74540;SHT31;66042;51.090;-115.340;2023-03-20T14:03:44;-4.02;53.74
74540;SHT31;66042;51.090;-115.340;2023-03-20T14:09:29;-3.94;53.46
74540;SHT31;66042;51.090;-115.340;2023-03-20T14:12:08;-3.92;53.27
74540;SHT31;66042;51.090;-115.340;2023-03-20T14:19:55;-3.90;53.23
74540;SHT31;66042;51.090;-115.340;2023-03-20T14:22:35;-3.93;53.18
74540;SHT31;66042;51.090;-115.340;2023-03-20T14:25:06;-3.98;53.33
74540;SHT31;66042;51.090;-115.340;2023-03-20T14:27:59;-4.07;53.61
74540;SHT31;66042;51.090;-115.340;2023-03-20T14:30:46;-4.09;53.63
74540;SHT31;66042;51.090;-115.340;2023-03-20T14:38:48;-4.16;53.61
74540;SHT31;66042;51.090;-115.340;2023-03-20T14:47:05;-4.18;53.58
74540;SHT31;66042;51.090;-115.340;2023-03-20T14:52:52;-4.22;53.73
74540;SHT31;66042;51.090;-115.340;2023-03-20T14:57:52;-4.26;53.90
74540;SHT31;66042;51.090;-115.340;2023-03-20T15:00:21;-4.27;53.96
74540;SHT31;66042;51.090;-115.340;2023-03-20T15:05:37;-4.31;53.79
74540;SHT31;66042;51.090;-115.340;2023-03-20T15:08:11;-4.30;53.79
74540;SHT31;66042;51.090;-115.340;2023-03-20T15:10:55;-4.29;53.80
74540;SHT31;66042;51.090;-115.340;2023-03-20T15:13:30;-4.29;53.76
74540;SHT31;66042;51.090;-115.340;2023-03-20T15:16:05;-4.29;53.62
74540;SHT31;66042;51.090;-115.340;2023-03-20T15:18:40;-4.28;53.72
74540;SHT31;66042;51.090;-115.340;2023-03-20T15:21:13;-4.26;53.84
74540;SHT31;66042;51.090;-115.340;2023-03-20T15:23:45;-4.22;53.73
74540;SHT31;66042;51.090;-115.340;2023-03-20T15:26:14;-4.17;53.52
74540;SHT31;66042;51.090;-115.340;2023-03-20T15:28:45;-4.12;53.41
74540;SHT31;66042;51.090;-115.340;2023-03-20T15:31:18;-4.07;53.13
74540;SHT31;66042;51.090;-115.340;2023-03-20T15:33:55;-4.01;53.10
74540;SHT31;66042;51.090;-115.340;2023-03-20T15:36:27;-3.93;52.74
74540;SHT31;66042;51.090;-115.340;2023-03-20T15:41:50;-3.72;52.59
74540;SHT31;66042;51.090;-115.340;2023-03-20T15:44:39;-3.63;52.31
74540;SHT31;66042;51.090;-115.340;2023-03-20T15:49:52;-3.44;51.37
74540;SHT31;66042;51.090;-115.340;2023-03-20T15:55:11;-3.27;50.74
74540;SHT31;66042;51.090;-115.340;2023-03-20T15:57:44;-3.18;50.04
74540;SHT31;66042;51.090;-115.340;2023-03-20T16:03:12;-3.12;50.34
74540;SHT31;66042;51.090;-115.340;2023-03-20T16:05:45;-3.11;50.31
74540;SHT31;66042;51.090;-115.340;2023-03-20T16:08:26;-3.09;50.07
74540;SHT31;66042;51.090;-115.340;2023-03-20T16:11:02;-3.05;49.99
74540;SHT31;66042;51.090;-115.340;2023-03-20T16:13:35;-2.99;50.02
74540;SHT31;66042;51.090;-115.340;2023-03-20T16:16:10;-2.93;50.14
74540;SHT31;66042;51.090;-115.340;2023-03-20T16:18:47;-2.89;50.13
74540;SHT31;66042;51.090;-115.340;2023-03-20T16:21:32;-2.86;50.36
74540;SHT31;66042;51.090;-115.340;2023-03-20T16:24:05;-2.83;50.29
74540;SHT31;66042;51.090;-115.340;2023-03-20T16:26:41;-2.80;50.18
74540;SHT31;66042;51.090;-115.340;2023-03-20T16:29:13;-2.76;50.13
74540;SHT31;66042;51.090;-115.340;2023-03-20T16:35:19;-2.80;49.23
74540;SHT31;66042;51.090;-115.340;2023-03-20T16:38:24;-2.80;49.14
74540;SHT31;66042;51.090;-115.340;2023-03-20T16:40:55;-2.77;49.14
74540;SHT31;66042;51.090;-115.340;2023-03-20T16:43:43;-2.74;49.40
74540;SHT31;66042;51.090;-115.340;2023-03-20T16:46:20;-2.71;49.48
74540;SHT31;66042;51.090;-115.340;2023-03-20T16:49:15;-2.63;49.49
74540;SHT31;66042;51.090;-115.340;2023-03-20T16:52:15;-2.57;49.32
74540;SHT31;66042;51.090;-115.340;2023-03-20T16:54:51;-2.53;48.81
74540;SHT31;66042;51.090;-115.340;2023-03-20T16:57:21;-2.48;48.49
74540;SHT31;66042;51.090;-115.340;2023-03-20T16:59:50;-2.43;48.64
74540;SHT31;66042;51.090;-115.340;2023-03-20T17:02:29;-2.38;48.55
74540;SHT31;66042;51.090;-115.340;2023-03-20T17:05:03;-2.32;48.27
74540;SHT31;66042;51.090;-115.340;2023-03-20T17:07:37;-2.26;47.85
74540;SHT31;66042;51.090;-115.340;2023-03-20T17:12:42;-2.11;47.55
74540;SHT31;66042;51.090;-115.340;2023-03-20T17:15:13;-2.04;47.09
74540;SHT31;66042;51.090;-115.340;2023-03-20T17:17:43;-1.97;47.13
74540;SHT31;66042;51.090;-115.340;2023-03-20T17:22:50;-1.81;46.94
74540;SHT31;66042;51.090;-115.340;2023-03-20T17:25:17;-1.73;46.74
74540;SHT31;66042;51.090;-115.340;2023-03-20T17:27:46;-1.65;46.58
74540;SHT31;66042;51.090;-115.340;2023-03-20T17:30:22;-1.57;46.45
74540;SHT31;66042;51.090;-115.340;2023-03-20T17:32:50;-1.50;46.06
74540;SHT31;66042;51.090;-115.340;2023-03-20T17:35:18;-1.40;46.22
74540;SHT31;66042;51.090;-115.340;2023-03-20T17:37:45;-1.31;46.13
74540;SHT31;66042;51.090;-115.340;2023-03-20T17:40:16;-1.23;45.94
74540;SHT31;66042;51.090;-115.340;2023-03-20T17:42:49;-1.12;45.92
74540;SHT31;66042;51.090;-115.340;2023-03-20T17:45:18;-1.03;45.95
74540;SHT31;66042;51.090;-115.340;2023-03-20T17:47:45;-0.92;46.00
74540;SHT31;66042;51.090;-115.340;2023-03-20T17:50:22;-0.81;46.02
74540;SHT31;66042;51.090;-115.340;2023-03-20T17:52:52;-0.70;45.62
74540;SHT31;66042;51.090;-115.340;2023-03-20T17:55:19;-0.58;45.13
74540;SHT31;66042;51.090;-115.340;2023-03-20T17:57:46;-0.47;44.77
74540;SHT31;66042;51.090;-115.340;2023-03-20T18:00:17;-0.36;44.56
74540;SHT31;66042;51.090;-115.340;2023-03-20T18:02:48;-0.27;43.55
74540;SHT31;66042;51.090;-115.340;2023-03-20T18:05:15;-0.17;43.37
74540;SHT31;66042;51.090;-115.340;2023-03-20T18:07:42;-0.07;43.28
74540;SHT31;66042;51.090;-115.340;2023-03-20T18:10:18;0.01;43.02
74540;SHT31;66042;51.090;-115.340;2023-03-20T18:12:55;0.12;42.91
74540;SHT31;66042;51.090;-115.340;2023-03-20T18:15:22;0.25;42.29
74540;SHT31;66042;51.090;-115.340;2023-03-20T18:17:49;0.36;42.15
74540;SHT31;66042;51.090;-115.340;2023-03-20T18:22:58;0.64;41.87
74540;SHT31;66042;51.090;-115.340;2023-03-20T18:25:26;0.78;42.46
74540;SHT31;66042;51.090;-115.340;2023-03-20T18:27:54;0.93;41.70
74540;SHT31;66042;51.090;-115.340;2023-03-20T18:30:25;1.05;41.02
74540;SHT31;66042;51.090;-115.340;2023-03-20T18:33:13;1.21;41.26
74540;SHT31;66042;51.090;-115.340;2023-03-20T18:35:40;1.35;41.28
74540;SHT31;66042;51.090;-115.340;2023-03-20T18:38:09;1.50;41.30
74540;SHT31;66042;51.090;-115.340;2023-03-20T18:40:38;1.62;41.00
74540;SHT31;66042;51.090;-115.340;2023-03-20T18:43:08;1.73;40.33
74540;SHT31;66042;51.090;-115.340;2023-03-20T18:45:35;1.86;40.21